메인 페이지
METAR-TAF:

METAR-TAF

공항 :

Council Bluffs, 아이오와, 미국

위도: 41-16N, 경도: 095-46W, 고도: 382m

현재 날씨관측

예보는 16분 전, 19:15시(UTC)에 발표되었습니다.
남남동8kt
온도 0°C
습도 100%
기압 1023 hPa
시정: 2.8km
고도 300ft 상공 흐림
약한눈

METAR: KCBF 231915Z AUTO 15008KT 1 3/4SM -SN OVC003 00/00 A3020 RMK AO2

시각: 13:31 (19:31 UTC)


TAF: 누락

4,000개 이상의 공항 관측 자료 및 예보 (METAR 및 TAF 보고).

지도상에서 검색 가능한 기상관측소가 노란 점과 빨간 점으로 표시되어 있습니다.

기상관측소 명을 보려면 표시 위로 마우스를 이동하세요.

날씨 관측과 예보를 보려면 클릭하세요.

지도 변경 : 확대하려면 엑스 표시가 있는 녹색 버튼, 축소하려면 빼기 표시가 있는 녹색 버튼, 다음 페이지의 지도를 보려면 녹색 화살표를 클릭하세요.


METAR-TAF: